createdAt,value
2023-05-01T00:03:47.408Z,97157.81
2023-05-01T00:08:49.473Z,97153.19
2023-05-01T00:13:51.736Z,97147.41
2023-05-01T00:18:55.186Z,97151.38
2023-05-01T00:23:57.365Z,97145.69
2023-05-01T00:28:59.380Z,97154.47
2023-05-01T00:34:02.766Z,97146.88
2023-05-01T00:39:07.585Z,97140.59
2023-05-01T00:44:09.552Z,97135.59
2023-05-01T00:49:13.456Z,97137.16
2023-05-01T00:54:15.606Z,97128.72
2023-05-01T00:59:17.858Z,97128.00
2023-05-01T01:04:21.316Z,97131.94
2023-05-01T01:09:31.722Z,97129.66
2023-05-01T01:14:40.123Z,97127.38
2023-05-01T01:20:15.940Z,97134.69
2023-05-01T01:25:50.875Z,97125.56
2023-05-01T01:31:08.969Z,97122.56
2023-05-01T01:36:21.300Z,97118.34
2023-05-01T01:41:30.248Z,97115.72
2023-05-01T01:46:37.536Z,97103.66
2023-05-01T01:51:42.367Z,97092.53
2023-05-01T01:56:46.131Z,97088.94
2023-05-01T02:01:50.989Z,97088.06
2023-05-01T02:06:56.449Z,97084.34
2023-05-01T02:12:00.232Z,97078.97
2023-05-01T02:17:02.902Z,97067.31
2023-05-01T02:22:07.720Z,97058.94
2023-05-01T02:27:13.719Z,97054.25
2023-05-01T02:32:15.717Z,97050.63
2023-05-01T02:37:19.073Z,97049.03
2023-05-01T02:42:23.892Z,97047.84
2023-05-01T02:47:28.910Z,97048.16
2023-05-01T02:52:32.597Z,97046.00
2023-05-01T02:57:34.677Z,97047.06
2023-05-01T03:02:36.760Z,97045.72
2023-05-01T03:07:40.036Z,97045.69
2023-05-01T03:12:42.319Z,97041.69
2023-05-01T03:17:44.267Z,97052.50
2023-05-01T03:22:47.552Z,97042.81
2023-05-01T03:27:50.021Z,97041.22
2023-05-01T03:32:52.053Z,97035.13
2023-05-01T03:37:55.562Z,97024.81
2023-05-01T03:42:57.600Z,97027.25
2023-05-01T03:47:59.785Z,97015.09
2023-05-01T03:53:03.087Z,97002.69
2023-05-01T03:58:05.046Z,97006.13
2023-05-01T04:03:07.255Z,97005.66
2023-05-01T04:08:11.255Z,97007.00
2023-05-01T04:13:13.391Z,96999.00
2023-05-01T04:18:15.353Z,96997.72
2023-05-01T04:23:18.762Z,96993.63
2023-05-01T04:28:21.042Z,96994.91
2023-05-01T04:33:23.543Z,97007.91
2023-05-01T04:38:26.988Z,97007.09
2023-05-01T04:43:28.895Z,97001.97
2023-05-01T04:48:31.034Z,97010.41
2023-05-01T04:53:34.328Z,97009.75
2023-05-01T04:58:36.335Z,97013.81
2023-05-01T05:03:38.393Z,97024.13
2023-05-01T05:08:42.344Z,97020.66
2023-05-01T05:13:44.434Z,97017.97
2023-05-01T05:18:46.411Z,97013.50
2023-05-01T05:23:49.768Z,97025.50
2023-05-01T05:28:51.840Z,97025.31
2023-05-01T05:33:53.955Z,97019.00
2023-05-01T05:38:57.326Z,97020.53
2023-05-01T05:43:59.662Z,97018.41
2023-05-01T05:49:01.642Z,97018.38
2023-05-01T05:54:05.014Z,97009.91
2023-05-01T05:59:07.017Z,97021.44
2023-05-01T06:04:09.876Z,97011.25
2023-05-01T06:09:15.921Z,97020.75
2023-05-01T06:14:19.015Z,97014.31
2023-05-01T06:19:21.041Z,97012.13
2023-05-01T06:24:24.641Z,97018.06
2023-05-01T06:29:26.625Z,97005.59
2023-05-01T06:34:28.614Z,97007.97
2023-05-01T06:39:32.008Z,97014.28
2023-05-01T06:44:33.981Z,97013.56
2023-05-01T06:49:36.010Z,97017.06
2023-05-01T06:54:39.420Z,97010.91
2023-05-01T06:59:41.468Z,96997.72
2023-05-01T07:04:44.450Z,97007.03
2023-05-01T07:09:47.646Z,96998.03
2023-05-01T07:14:49.599Z,97004.78
2023-05-01T07:19:51.792Z,96996.41
2023-05-01T07:24:55.062Z,96999.19
2023-05-01T07:29:58.053Z,97004.25
2023-05-01T07:35:00.365Z,97003.19
2023-05-01T07:40:04.257Z,97006.94
2023-05-01T07:45:07.587Z,96998.31
2023-05-01T07:50:10.462Z,96989.69
2023-05-01T07:55:13.844Z,96995.66
2023-05-01T08:00:17.490Z,96986.78
2023-05-01T08:05:19.691Z,96991.78
2023-05-01T08:10:23.083Z,97002.94
2023-05-01T08:15:25.105Z,96997.03
2023-05-01T08:20:27.250Z,96990.56
2023-05-01T08:25:31.603Z,96989.41
2023-05-01T08:30:33.637Z,96986.38
2023-05-01T08:35:35.654Z,96988.22
2023-05-01T08:40:40.938Z,96989.94
2023-05-01T08:45:43.312Z,96986.03
2023-05-01T08:50:47.465Z,96985.03
2023-05-01T08:55:52.216Z,96997.28
2023-05-01T09:00:57.495Z,96992.00
2023-05-01T09:06:02.589Z,96983.66
2023-05-01T09:11:06.441Z,96984.91
2023-05-01T09:16:08.586Z,96982.94
2023-05-01T09:21:12.008Z,96970.75
2023-05-01T09:26:15.824Z,96954.28
2023-05-01T09:31:22.901Z,96959.84
2023-05-01T09:36:27.936Z,96957.34
2023-05-01T09:41:33.024Z,96957.84
2023-05-01T09:46:42.565Z,96949.41
2023-05-01T09:51:44.702Z,96951.38
2023-05-01T09:56:49.009Z,96949.16
2023-05-01T10:01:51.406Z,96941.09
2023-05-01T10:06:53.372Z,96949.75
2023-05-01T10:11:57.720Z,96938.06
2023-05-01T10:17:00.064Z,96941.19
2023-05-01T10:22:02.389Z,96928.41
2023-05-01T10:27:07.820Z,96932.81
2023-05-01T10:32:10.387Z,96928.69
2023-05-01T10:37:17.237Z,96930.16
2023-05-01T10:42:20.615Z,96927.38
2023-05-01T10:47:44.714Z,96928.41
2023-05-01T10:53:18.361Z,96919.56
2023-05-01T10:58:56.489Z,96916.59
2023-05-01T11:03:59.862Z,96909.44
2023-05-01T11:09:02.775Z,96903.66
2023-05-01T11:14:07.505Z,96899.63
2023-05-01T11:19:11.108Z,96892.47
2023-05-01T11:24:13.100Z,96895.75
2023-05-01T11:29:17.124Z,96886.50
2023-05-01T11:34:19.343Z,96887.41
2023-05-01T11:39:22.151Z,96872.75
2023-05-01T11:44:25.516Z,96872.66
2023-05-01T11:49:30.757Z,96876.13
2023-05-01T11:54:47.404Z,96853.97
2023-05-01T11:59:50.784Z,96858.72
2023-05-01T12:04:53.973Z,96841.63
2023-05-01T12:09:56.139Z,96837.88
2023-05-01T12:15:00.912Z,96839.16
2023-05-01T12:20:04.355Z,96830.13
2023-05-01T12:25:07.694Z,96825.81
2023-05-01T12:30:12.059Z,96821.84
2023-05-01T12:35:15.490Z,96805.38
2023-05-01T12:40:17.570Z,96811.97
2023-05-01T12:45:21.010Z,96798.72
2023-05-01T12:50:23.093Z,96799.47
2023-05-01T12:55:25.148Z,96790.25
2023-05-01T13:00:28.454Z,96798.34
2023-05-01T13:05:30.952Z,96785.97
2023-05-01T13:10:32.975Z,96784.53
2023-05-01T13:15:37.458Z,96782.09
2023-05-01T13:20:39.514Z,96769.03
2023-05-01T13:25:41.604Z,96762.28
2023-05-01T13:30:45.382Z,96755.00
2023-05-01T13:35:47.352Z,96753.22
2023-05-01T13:40:49.614Z,96749.38
2023-05-01T13:45:57.829Z,96747.41
2023-05-01T13:50:59.788Z,96734.06
2023-05-01T13:56:04.228Z,96745.66
2023-05-01T14:01:15.031Z,96733.47
2023-05-01T14:06:18.992Z,96732.59
2023-05-01T14:11:21.073Z,96726.50
2023-05-01T14:16:25.962Z,96721.75
2023-05-01T14:21:28.304Z,96719.47
2023-05-01T14:26:30.555Z,96702.47
2023-05-01T14:31:33.907Z,96694.63
2023-05-01T14:36:35.962Z,96691.81
2023-05-01T14:41:42.310Z,96688.34
2023-05-01T14:46:49.581Z,96681.09
2023-05-01T14:51:53.263Z,96678.63
2023-05-01T14:56:55.267Z,96679.31
2023-05-01T15:01:58.639Z,96669.81
2023-05-01T15:07:00.634Z,96668.59
2023-05-01T15:12:04.527Z,96665.38
2023-05-01T15:17:08.886Z,96668.50
2023-05-01T15:22:10.836Z,96664.69
2023-05-01T15:27:13.076Z,96657.22
2023-05-01T15:32:16.475Z,96656.81
2023-05-01T15:37:18.478Z,96656.28
2023-05-01T15:42:20.742Z,96649.78
2023-05-01T15:47:24.178Z,96654.28
2023-05-01T15:52:27.090Z,96653.53
2023-05-01T15:57:29.467Z,96650.84
2023-05-01T16:02:33.204Z,96654.97
2023-05-01T16:07:35.368Z,96637.06
2023-05-01T16:12:37.592Z,96643.72
2023-05-01T16:17:43.674Z,96647.63
2023-05-01T16:22:45.860Z,96644.28
2023-05-01T16:27:47.921Z,96639.16
2023-05-01T16:32:51.330Z,96637.91
2023-05-01T16:37:53.704Z,96633.44
2023-05-01T16:42:56.173Z,96630.50
2023-05-01T16:47:59.692Z,96630.69
2023-05-01T16:53:01.714Z,96641.50
2023-05-01T16:58:03.700Z,96633.59
2023-05-01T17:03:07.166Z,96637.16
2023-05-01T17:08:10.550Z,96634.03
2023-05-01T17:13:14.544Z,96632.09
2023-05-01T17:18:18.092Z,96640.75
2023-05-01T17:23:22.283Z,96628.72
2023-05-01T17:28:24.508Z,96620.56
2023-05-01T17:33:30.994Z,96612.44
2023-05-01T17:38:33.032Z,96624.88
2023-05-01T17:43:35.042Z,96616.88
2023-05-01T17:48:38.366Z,96614.91
2023-05-01T17:53:40.799Z,96614.66
2023-05-01T17:58:42.692Z,96613.03
2023-05-01T18:03:46.216Z,96620.81
2023-05-01T18:08:50.004Z,96617.31
2023-05-01T18:13:52.207Z,96615.81
2023-05-01T18:18:58.028Z,96615.06
2023-05-01T18:24:02.306Z,96618.94
2023-05-01T18:29:04.313Z,96614.63
2023-05-01T18:34:10.078Z,96617.53
2023-05-01T18:39:12.302Z,96612.72
2023-05-01T18:44:14.484Z,96620.31
2023-05-01T18:49:23.325Z,96626.72
2023-05-01T18:54:25.474Z,96616.25
2023-05-01T18:59:30.901Z,96626.88
2023-05-01T19:04:49.156Z,96618.44
2023-05-01T19:09:58.753Z,96628.59
2023-05-01T19:15:01.164Z,96628.03
2023-05-01T19:20:05.747Z,96628.19
2023-05-01T19:25:08.530Z,96629.06
2023-05-01T19:30:11.051Z,96626.16
2023-05-01T19:35:14.600Z,96628.53
2023-05-01T19:40:16.820Z,96630.53
2023-05-01T19:45:18.877Z,96634.72
2023-05-01T19:50:22.713Z,96629.78
2023-05-01T19:55:24.899Z,96643.84
2023-05-01T20:00:27.969Z,96647.75
2023-05-01T20:05:32.482Z,96646.84
2023-05-01T20:10:34.480Z,96643.81
2023-05-01T20:15:36.982Z,96650.63
2023-05-01T20:20:40.329Z,96643.81
2023-05-01T20:25:42.598Z,96647.28
2023-05-01T20:30:46.212Z,96637.31
2023-05-01T20:35:49.640Z,96642.22
2023-05-01T20:40:51.687Z,96642.91
2023-05-01T20:45:53.670Z,96650.75
2023-05-01T20:50:57.184Z,96656.41
2023-05-01T20:55:59.157Z,96657.81
2023-05-01T21:01:01.735Z,96665.06
2023-05-01T21:06:05.709Z,96665.34
2023-05-01T21:11:07.740Z,96666.06
2023-05-01T21:16:13.910Z,96673.56
2023-05-01T21:21:17.503Z,96666.06
2023-05-01T21:26:19.715Z,96674.72
2023-05-01T21:31:22.159Z,96672.25
2023-05-01T21:36:25.511Z,96668.94
2023-05-01T21:41:27.460Z,96675.38
2023-05-01T21:46:29.525Z,96681.47
2023-05-01T21:51:33.451Z,96680.34
2023-05-01T21:56:35.585Z,96677.06
2023-05-01T22:01:39.164Z,96678.78
2023-05-01T22:06:42.499Z,96681.19
2023-05-01T22:11:44.550Z,96687.38
2023-05-01T22:16:46.782Z,96684.50
2023-05-01T22:21:50.245Z,96676.22
2023-05-01T22:26:52.340Z,96668.66
2023-05-01T22:31:54.296Z,96668.53
2023-05-01T22:36:57.580Z,96666.22
2023-05-01T22:41:59.818Z,96666.03
2023-05-01T22:47:01.752Z,96668.75
2023-05-01T22:52:05.498Z,96679.81
2023-05-01T22:57:07.675Z,96680.28
2023-05-01T23:02:10.075Z,96682.28
2023-05-01T23:07:14.395Z,96679.03
2023-05-01T23:12:19.915Z,96677.59
2023-05-01T23:17:22.043Z,96682.47
2023-05-01T23:22:25.778Z,96674.63
2023-05-01T23:27:28.189Z,96676.78
2023-05-01T23:32:31.894Z,96680.41
2023-05-01T23:37:35.330Z,96663.09
2023-05-01T23:42:38.301Z,96664.63
2023-05-01T23:47:40.695Z,96670.81
2023-05-01T23:52:44.333Z,96671.19
2023-05-01T23:57:46.425Z,96665.25
